sensor_id;sensor_type;location;lat;lon;timestamp;P1;durP1;ratioP1;P2;durP2;ratioP2
83840;SDS011;73868;52.172;10.668;2024-01-15T00:01:33;14.87;;;11.07;;
83840;SDS011;73868;52.172;10.668;2024-01-15T00:03:59;14.80;;;11.10;;
83840;SDS011;73868;52.172;10.668;2024-01-15T00:06:25;16.23;;;11.57;;
83840;SDS011;73868;52.172;10.668;2024-01-15T00:08:52;14.70;;;10.67;;
83840;SDS011;73868;52.172;10.668;2024-01-15T00:11:17;15.30;;;11.07;;
83840;SDS011;73868;52.172;10.668;2024-01-15T00:13:43;12.93;;;10.27;;
83840;SDS011;73868;52.172;10.668;2024-01-15T00:16:08;14.27;;;10.60;;
83840;SDS011;73868;52.172;10.668;2024-01-15T00:18:34;13.90;;;10.53;;
83840;SDS011;73868;52.172;10.668;2024-01-15T00:21:00;14.07;;;11.83;;
83840;SDS011;73868;52.172;10.668;2024-01-15T00:23:25;14.53;;;11.10;;
83840;SDS011;73868;52.172;10.668;2024-01-15T00:25:51;13.40;;;10.47;;
83840;SDS011;73868;52.172;10.668;2024-01-15T00:28:17;14.90;;;11.32;;
83840;SDS011;73868;52.172;10.668;2024-01-15T00:30:42;13.23;;;10.33;;
83840;SDS011;73868;52.172;10.668;2024-01-15T00:33:08;16.60;;;10.83;;
83840;SDS011;73868;52.172;10.668;2024-01-15T00:35:33;14.60;;;11.13;;
83840;SDS011;73868;52.172;10.668;2024-01-15T00:37:59;14.53;;;10.73;;
83840;SDS011;73868;52.172;10.668;2024-01-15T00:40:24;14.43;;;10.53;;
83840;SDS011;73868;52.172;10.668;2024-01-15T00:42:50;15.60;;;11.55;;
83840;SDS011;73868;52.172;10.668;2024-01-15T00:45:16;15.47;;;11.57;;
83840;SDS011;73868;52.172;10.668;2024-01-15T00:47:41;16.93;;;14.17;;
83840;SDS011;73868;52.172;10.668;2024-01-15T00:50:07;18.97;;;12.90;;
83840;SDS011;73868;52.172;10.668;2024-01-15T00:52:33;17.53;;;12.23;;
83840;SDS011;73868;52.172;10.668;2024-01-15T00:54:59;16.57;;;12.23;;
83840;SDS011;73868;52.172;10.668;2024-01-15T00:57:24;17.77;;;15.13;;
83840;SDS011;73868;52.172;10.668;2024-01-15T00:59:50;15.53;;;11.70;;
83840;SDS011;73868;52.172;10.668;2024-01-15T01:02:15;15.37;;;10.73;;
83840;SDS011;73868;52.172;10.668;2024-01-15T01:04:41;13.73;;;11.00;;
83840;SDS011;73868;52.172;10.668;2024-01-15T01:07:06;14.60;;;10.80;;
83840;SDS011;73868;52.172;10.668;2024-01-15T01:09:32;13.73;;;10.23;;
83840;SDS011;73868;52.172;10.668;2024-01-15T01:11:58;13.93;;;9.67;;
83840;SDS011;73868;52.172;10.668;2024-01-15T01:14:23;14.30;;;10.87;;
83840;SDS011;73868;52.172;10.668;2024-01-15T01:16:49;13.87;;;11.50;;
83840;SDS011;73868;52.172;10.668;2024-01-15T01:19:14;12.03;;;9.87;;
83840;SDS011;73868;52.172;10.668;2024-01-15T01:21:40;10.87;;;8.63;;
83840;SDS011;73868;52.172;10.668;2024-01-15T01:24:06;15.00;;;8.40;;
83840;SDS011;73868;52.172;10.668;2024-01-15T01:26:31;10.43;;;8.40;;
83840;SDS011;73868;52.172;10.668;2024-01-15T01:28:57;12.40;;;7.67;;
83840;SDS011;73868;52.172;10.668;2024-01-15T01:31:23;12.97;;;8.60;;
83840;SDS011;73868;52.172;10.668;2024-01-15T01:33:48;10.77;;;8.47;;
83840;SDS011;73868;52.172;10.668;2024-01-15T01:36:14;11.67;;;8.93;;
83840;SDS011;73868;52.172;10.668;2024-01-15T01:38:40;11.03;;;8.40;;
83840;SDS011;73868;52.172;10.668;2024-01-15T01:41:06;14.00;;;8.33;;
83840;SDS011;73868;52.172;10.668;2024-01-15T01:43:31;10.80;;;7.67;;
83840;SDS011;73868;52.172;10.668;2024-01-15T01:45:57;10.47;;;6.90;;
83840;SDS011;73868;52.172;10.668;2024-01-15T01:48:25;10.67;;;7.03;;
83840;SDS011;73868;52.172;10.668;2024-01-15T01:50:55;10.70;;;7.03;;
83840;SDS011;73868;52.172;10.668;2024-01-15T01:53:24;8.87;;;7.03;;
83840;SDS011;73868;52.172;10.668;2024-01-15T01:55:51;10.30;;;6.60;;
83840;SDS011;73868;52.172;10.668;2024-01-15T01:58:18;10.33;;;7.33;;
83840;SDS011;73868;52.172;10.668;2024-01-15T02:00:45;11.67;;;8.00;;
83840;SDS011;73868;52.172;10.668;2024-01-15T02:03:11;10.37;;;7.73;;
83840;SDS011;73868;52.172;10.668;2024-01-15T02:05:37;10.70;;;7.03;;
83840;SDS011;73868;52.172;10.668;2024-01-15T02:08:05;9.27;;;7.13;;
83840;SDS011;73868;52.172;10.668;2024-01-15T02:10:30;10.80;;;6.87;;
83840;SDS011;73868;52.172;10.668;2024-01-15T02:12:56;8.70;;;6.00;;
83840;SDS011;73868;52.172;10.668;2024-01-15T02:15:22;10.07;;;6.93;;
83840;SDS011;73868;52.172;10.668;2024-01-15T02:20:22;8.83;;;5.10;;
83840;SDS011;73868;52.172;10.668;2024-01-15T02:22:48;12.53;;;5.53;;
83840;SDS011;73868;52.172;10.668;2024-01-15T02:25:13;7.87;;;4.97;;
83840;SDS011;73868;52.172;10.668;2024-01-15T02:27:39;9.30;;;5.17;;
83840;SDS011;73868;52.172;10.668;2024-01-15T02:30:05;7.17;;;4.53;;
83840;SDS011;73868;52.172;10.668;2024-01-15T02:32:33;9.80;;;5.17;;
83840;SDS011;73868;52.172;10.668;2024-01-15T02:34:58;7.67;;;4.50;;
83840;SDS011;73868;52.172;10.668;2024-01-15T02:37:24;9.63;;;5.07;;
83840;SDS011;73868;52.172;10.668;2024-01-15T02:39:49;7.20;;;4.37;;
83840;SDS011;73868;52.172;10.668;2024-01-15T02:42:15;9.10;;;4.10;;
83840;SDS011;73868;52.172;10.668;2024-01-15T02:44:40;10.43;;;4.03;;
83840;SDS011;73868;52.172;10.668;2024-01-15T02:47:06;8.93;;;3.70;;
83840;SDS011;73868;52.172;10.668;2024-01-15T02:49:31;6.70;;;3.43;;
83840;SDS011;73868;52.172;10.668;2024-01-15T02:51:57;9.43;;;3.83;;
83840;SDS011;73868;52.172;10.668;2024-01-15T02:54:23;9.20;;;3.67;;
83840;SDS011;73868;52.172;10.668;2024-01-15T02:56:48;7.73;;;3.43;;
83840;SDS011;73868;52.172;10.668;2024-01-15T02:59:14;8.30;;;3.43;;
83840;SDS011;73868;52.172;10.668;2024-01-15T03:01:39;8.17;;;3.50;;
83840;SDS011;73868;52.172;10.668;2024-01-15T03:04:05;6.13;;;3.27;;
83840;SDS011;73868;52.172;10.668;2024-01-15T03:06:30;8.37;;;3.60;;
83840;SDS011;73868;52.172;10.668;2024-01-15T03:08:56;11.60;;;3.63;;
83840;SDS011;73868;52.172;10.668;2024-01-15T03:11:21;9.00;;;3.70;;
83840;SDS011;73868;52.172;10.668;2024-01-15T03:13:47;6.60;;;2.83;;
83840;SDS011;73868;52.172;10.668;2024-01-15T03:16:12;4.93;;;2.80;;
83840;SDS011;73868;52.172;10.668;2024-01-15T03:18:38;5.17;;;2.87;;
83840;SDS011;73868;52.172;10.668;2024-01-15T03:21:04;8.60;;;3.57;;
83840;SDS011;73868;52.172;10.668;2024-01-15T03:23:30;8.20;;;3.23;;
83840;SDS011;73868;52.172;10.668;2024-01-15T03:25:56;10.23;;;3.60;;
83840;SDS011;73868;52.172;10.668;2024-01-15T03:28:22;7.13;;;3.00;;
83840;SDS011;73868;52.172;10.668;2024-01-15T03:30:47;6.80;;;3.40;;
83840;SDS011;73868;52.172;10.668;2024-01-15T03:33:13;8.63;;;3.53;;
83840;SDS011;73868;52.172;10.668;2024-01-15T03:35:38;10.97;;;3.60;;
83840;SDS011;73868;52.172;10.668;2024-01-15T03:38:04;5.53;;;3.43;;
83840;SDS011;73868;52.172;10.668;2024-01-15T03:40:29;7.23;;;3.60;;
83840;SDS011;73868;52.172;10.668;2024-01-15T03:42:55;6.70;;;2.93;;
83840;SDS011;73868;52.172;10.668;2024-01-15T03:45:20;6.60;;;3.10;;
83840;SDS011;73868;52.172;10.668;2024-01-15T03:47:46;8.82;;;3.65;;
83840;SDS011;73868;52.172;10.668;2024-01-15T03:50:11;8.27;;;2.70;;
83840;SDS011;73868;52.172;10.668;2024-01-15T03:52:37;6.27;;;2.27;;
83840;SDS011;73868;52.172;10.668;2024-01-15T03:55:03;3.90;;;2.10;;
83840;SDS011;73868;52.172;10.668;2024-01-15T03:57:30;8.27;;;3.47;;
83840;SDS011;73868;52.172;10.668;2024-01-15T03:59:55;9.80;;;3.10;;
83840;SDS011;73868;52.172;10.668;2024-01-15T04:02:21;15.40;;;4.77;;
83840;SDS011;73868;52.172;10.668;2024-01-15T04:04:46;8.63;;;2.90;;
83840;SDS011;73868;52.172;10.668;2024-01-15T04:07:12;12.60;;;3.17;;
83840;SDS011;73868;52.172;10.668;2024-01-15T04:09:37;10.03;;;3.00;;
83840;SDS011;73868;52.172;10.668;2024-01-15T04:12:03;5.77;;;2.53;;
83840;SDS011;73868;52.172;10.668;2024-01-15T04:14:29;7.80;;;2.50;;
83840;SDS011;73868;52.172;10.668;2024-01-15T04:16:54;9.67;;;3.20;;
83840;SDS011;73868;52.172;10.668;2024-01-15T04:19:20;7.83;;;3.40;;
83840;SDS011;73868;52.172;10.668;2024-01-15T04:21:45;6.97;;;2.30;;
83840;SDS011;73868;52.172;10.668;2024-01-15T04:24:11;8.23;;;2.73;;
83840;SDS011;73868;52.172;10.668;2024-01-15T04:26:36;8.37;;;2.93;;
83840;SDS011;73868;52.172;10.668;2024-01-15T04:29:02;7.03;;;2.50;;
83840;SDS011;73868;52.172;10.668;2024-01-15T04:31:27;7.47;;;2.57;;
83840;SDS011;73868;52.172;10.668;2024-01-15T04:33:53;8.57;;;3.40;;
83840;SDS011;73868;52.172;10.668;2024-01-15T04:36:18;9.23;;;3.23;;
83840;SDS011;73868;52.172;10.668;2024-01-15T04:38:44;7.60;;;3.13;;
83840;SDS011;73868;52.172;10.668;2024-01-15T04:41:13;8.00;;;3.30;;
83840;SDS011;73868;52.172;10.668;2024-01-15T04:43:39;11.80;;;3.23;;
83840;SDS011;73868;52.172;10.668;2024-01-15T04:46:08;8.47;;;2.83;;
83840;SDS011;73868;52.172;10.668;2024-01-15T04:48:34;10.13;;;3.15;;
83840;SDS011;73868;52.172;10.668;2024-01-15T04:50:59;7.83;;;3.03;;
83840;SDS011;73868;52.172;10.668;2024-01-15T04:53:25;10.30;;;3.33;;
83840;SDS011;73868;52.172;10.668;2024-01-15T04:55:51;8.37;;;3.53;;
83840;SDS011;73868;52.172;10.668;2024-01-15T04:58:16;9.27;;;3.00;;
83840;SDS011;73868;52.172;10.668;2024-01-15T05:00:42;6.20;;;2.60;;
83840;SDS011;73868;52.172;10.668;2024-01-15T05:03:07;9.87;;;2.70;;
83840;SDS011;73868;52.172;10.668;2024-01-15T05:05:33;8.00;;;3.00;;
83840;SDS011;73868;52.172;10.668;2024-01-15T05:07:58;12.50;;;3.40;;
83840;SDS011;73868;52.172;10.668;2024-01-15T05:10:24;10.70;;;2.80;;
83840;SDS011;73868;52.172;10.668;2024-01-15T05:12:49;6.60;;;2.50;;
83840;SDS011;73868;52.172;10.668;2024-01-15T05:15:15;8.87;;;3.00;;
83840;SDS011;73868;52.172;10.668;2024-01-15T05:17:40;8.83;;;2.80;;
83840;SDS011;73868;52.172;10.668;2024-01-15T05:20:06;8.73;;;2.90;;
83840;SDS011;73868;52.172;10.668;2024-01-15T05:22:32;9.90;;;3.00;;
83840;SDS011;73868;52.172;10.668;2024-01-15T05:24:57;9.73;;;2.73;;
83840;SDS011;73868;52.172;10.668;2024-01-15T05:27:23;8.23;;;2.97;;
83840;SDS011;73868;52.172;10.668;2024-01-15T05:29:49;6.47;;;2.43;;
83840;SDS011;73868;52.172;10.668;2024-01-15T05:32:14;4.80;;;2.60;;
83840;SDS011;73868;52.172;10.668;2024-01-15T05:34:40;10.20;;;2.83;;
83840;SDS011;73868;52.172;10.668;2024-01-15T05:37:05;10.13;;;3.20;;
83840;SDS011;73868;52.172;10.668;2024-01-15T05:39:31;7.07;;;2.60;;
83840;SDS011;73868;52.172;10.668;2024-01-15T05:41:57;10.10;;;3.70;;
83840;SDS011;73868;52.172;10.668;2024-01-15T05:44:23;11.47;;;3.50;;
83840;SDS011;73868;52.172;10.668;2024-01-15T05:46:49;11.23;;;4.07;;
83840;SDS011;73868;52.172;10.668;2024-01-15T05:49:14;11.77;;;3.70;;
83840;SDS011;73868;52.172;10.668;2024-01-15T05:51:40;6.20;;;3.20;;
83840;SDS011;73868;52.172;10.668;2024-01-15T05:54:05;11.57;;;3.53;;
83840;SDS011;73868;52.172;10.668;2024-01-15T05:56:31;9.57;;;3.13;;
83840;SDS011;73868;52.172;10.668;2024-01-15T05:58:56;9.13;;;3.30;;
83840;SDS011;73868;52.172;10.668;2024-01-15T06:01:22;8.10;;;2.73;;
83840;SDS011;73868;52.172;10.668;2024-01-15T06:03:47;7.43;;;2.97;;
83840;SDS011;73868;52.172;10.668;2024-01-15T06:06:13;12.77;;;3.37;;
83840;SDS011;73868;52.172;10.668;2024-01-15T06:08:38;6.90;;;2.97;;
83840;SDS011;73868;52.172;10.668;2024-01-15T06:11:04;7.40;;;3.27;;
83840;SDS011;73868;52.172;10.668;2024-01-15T06:13:30;8.90;;;4.70;;
83840;SDS011;73868;52.172;10.668;2024-01-15T06:15:55;8.37;;;3.43;;
83840;SDS011;73868;52.172;10.668;2024-01-15T06:18:21;8.33;;;3.27;;
83840;SDS011;73868;52.172;10.668;2024-01-15T06:20:46;8.50;;;3.30;;
83840;SDS011;73868;52.172;10.668;2024-01-15T06:23:12;6.67;;;3.50;;
83840;SDS011;73868;52.172;10.668;2024-01-15T06:25:37;11.17;;;4.03;;
83840;SDS011;73868;52.172;10.668;2024-01-15T06:28:03;9.03;;;3.40;;
83840;SDS011;73868;52.172;10.668;2024-01-15T06:30:30;8.53;;;3.60;;
83840;SDS011;73868;52.172;10.668;2024-01-15T06:32:55;6.57;;;3.60;;
83840;SDS011;73868;52.172;10.668;2024-01-15T06:35:21;6.50;;;3.43;;
83840;SDS011;73868;52.172;10.668;2024-01-15T06:37:46;6.10;;;3.53;;
83840;SDS011;73868;52.172;10.668;2024-01-15T06:40:12;8.43;;;3.40;;
83840;SDS011;73868;52.172;10.668;2024-01-15T06:42:38;8.57;;;3.20;;
83840;SDS011;73868;52.172;10.668;2024-01-15T06:45:03;7.03;;;3.70;;
83840;SDS011;73868;52.172;10.668;2024-01-15T06:47:29;7.57;;;3.97;;
83840;SDS011;73868;52.172;10.668;2024-01-15T06:49:57;7.23;;;4.03;;
83840;SDS011;73868;52.172;10.668;2024-01-15T06:52:23;7.63;;;3.50;;
83840;SDS011;73868;52.172;10.668;2024-01-15T06:54:49;6.67;;;4.27;;
83840;SDS011;73868;52.172;10.668;2024-01-15T06:57:15;8.37;;;4.57;;
83840;SDS011;73868;52.172;10.668;2024-01-15T06:59:40;9.00;;;3.73;;
83840;SDS011;73868;52.172;10.668;2024-01-15T07:02:06;7.50;;;3.63;;
83840;SDS011;73868;52.172;10.668;2024-01-15T07:04:31;6.73;;;4.27;;
83840;SDS011;73868;52.172;10.668;2024-01-15T07:06:57;9.83;;;4.63;;
83840;SDS011;73868;52.172;10.668;2024-01-15T07:09:23;7.00;;;3.77;;
83840;SDS011;73868;52.172;10.668;2024-01-15T07:11:48;7.20;;;4.07;;
83840;SDS011;73868;52.172;10.668;2024-01-15T07:14:14;6.43;;;4.00;;
83840;SDS011;73868;52.172;10.668;2024-01-15T07:16:40;8.23;;;4.43;;
83840;SDS011;73868;52.172;10.668;2024-01-15T07:19:05;9.07;;;4.27;;
83840;SDS011;73868;52.172;10.668;2024-01-15T07:21:31;8.23;;;4.20;;
83840;SDS011;73868;52.172;10.668;2024-01-15T07:23:57;9.53;;;4.53;;
83840;SDS011;73868;52.172;10.668;2024-01-15T07:26:22;6.50;;;4.27;;
83840;SDS011;73868;52.172;10.668;2024-01-15T07:28:48;8.33;;;5.27;;
83840;SDS011;73868;52.172;10.668;2024-01-15T07:31:15;11.87;;;4.57;;
83840;SDS011;73868;52.172;10.668;2024-01-15T07:33:41;8.60;;;4.40;;
83840;SDS011;73868;52.172;10.668;2024-01-15T07:36:06;8.27;;;4.80;;
83840;SDS011;73868;52.172;10.668;2024-01-15T07:38:32;11.20;;;5.63;;
83840;SDS011;73868;52.172;10.668;2024-01-15T07:40:58;10.43;;;5.03;;
83840;SDS011;73868;52.172;10.668;2024-01-15T07:43:23;8.77;;;4.30;;
83840;SDS011;73868;52.172;10.668;2024-01-15T07:45:49;10.17;;;4.10;;
83840;SDS011;73868;52.172;10.668;2024-01-15T07:48:14;6.43;;;4.07;;
83840;SDS011;73868;52.172;10.668;2024-01-15T07:50:40;8.53;;;3.93;;
83840;SDS011;73868;52.172;10.668;2024-01-15T07:53:05;12.60;;;4.10;;
83840;SDS011;73868;52.172;10.668;2024-01-15T07:55:31;10.17;;;4.37;;
83840;SDS011;73868;52.172;10.668;2024-01-15T07:57:57;10.00;;;3.63;;
83840;SDS011;73868;52.172;10.668;2024-01-15T08:00:24;6.87;;;3.67;;
83840;SDS011;73868;52.172;10.668;2024-01-15T08:02:50;7.07;;;3.53;;
83840;SDS011;73868;52.172;10.668;2024-01-15T08:05:16;8.97;;;3.73;;
83840;SDS011;73868;52.172;10.668;2024-01-15T08:07:41;7.97;;;3.37;;
83840;SDS011;73868;52.172;10.668;2024-01-15T08:10:07;5.10;;;3.30;;
83840;SDS011;73868;52.172;10.668;2024-01-15T08:12:33;7.77;;;2.73;;
83840;SDS011;73868;52.172;10.668;2024-01-15T08:14:58;4.03;;;2.87;;
83840;SDS011;73868;52.172;10.668;2024-01-15T08:17:24;6.53;;;2.77;;
83840;SDS011;73868;52.172;10.668;2024-01-15T08:19:53;6.50;;;3.03;;
83840;SDS011;73868;52.172;10.668;2024-01-15T08:22:19;6.10;;;2.53;;
83840;SDS011;73868;52.172;10.668;2024-01-15T08:24:45;5.20;;;3.03;;
83840;SDS011;73868;52.172;10.668;2024-01-15T08:27:10;7.20;;;2.80;;
83840;SDS011;73868;52.172;10.668;2024-01-15T08:29:36;5.27;;;2.93;;
83840;SDS011;73868;52.172;10.668;2024-01-15T08:32:01;5.67;;;3.20;;
83840;SDS011;73868;52.172;10.668;2024-01-15T08:34:27;8.87;;;3.30;;
83840;SDS011;73868;52.172;10.668;2024-01-15T08:36:54;4.93;;;3.00;;
83840;SDS011;73868;52.172;10.668;2024-01-15T08:39:19;4.20;;;2.73;;
83840;SDS011;73868;52.172;10.668;2024-01-15T08:41:45;5.63;;;2.77;;
83840;SDS011;73868;52.172;10.668;2024-01-15T08:44:11;5.60;;;3.00;;
83840;SDS011;73868;52.172;10.668;2024-01-15T08:46:37;3.73;;;3.10;;
83840;SDS011;73868;52.172;10.668;2024-01-15T08:49:03;8.03;;;3.47;;
83840;SDS011;73868;52.172;10.668;2024-01-15T08:51:29;6.23;;;3.23;;
83840;SDS011;73868;52.172;10.668;2024-01-15T08:53:56;7.23;;;3.03;;
83840;SDS011;73868;52.172;10.668;2024-01-15T08:56:22;4.20;;;2.90;;
83840;SDS011;73868;52.172;10.668;2024-01-15T08:58:47;7.20;;;3.23;;
83840;SDS011;73868;52.172;10.668;2024-01-15T09:01:13;5.47;;;2.83;;
83840;SDS011;73868;52.172;10.668;2024-01-15T09:03:39;6.60;;;3.17;;
83840;SDS011;73868;52.172;10.668;2024-01-15T09:06:07;4.03;;;2.87;;
83840;SDS011;73868;52.172;10.668;2024-01-15T09:08:32;8.63;;;3.37;;
83840;SDS011;73868;52.172;10.668;2024-01-15T09:10:58;6.13;;;2.90;;
83840;SDS011;73868;52.172;10.668;2024-01-15T09:13:24;5.13;;;3.27;;
83840;SDS011;73868;52.172;10.668;2024-01-15T09:15:49;5.80;;;3.00;;
83840;SDS011;73868;52.172;10.668;2024-01-15T09:18:15;6.23;;;3.57;;
83840;SDS011;73868;52.172;10.668;2024-01-15T09:20:40;4.50;;;3.00;;
83840;SDS011;73868;52.172;10.668;2024-01-15T09:23:06;4.73;;;3.20;;
83840;SDS011;73868;52.172;10.668;2024-01-15T09:25:32;10.70;;;4.13;;
83840;SDS011;73868;52.172;10.668;2024-01-15T09:27:57;9.97;;;4.30;;
83840;SDS011;73868;52.172;10.668;2024-01-15T09:30:23;6.87;;;4.20;;
83840;SDS011;73868;52.172;10.668;2024-01-15T09:32:48;8.13;;;4.47;;
83840;SDS011;73868;52.172;10.668;2024-01-15T09:35:14;8.00;;;4.67;;
83840;SDS011;73868;52.172;10.668;2024-01-15T09:37:40;10.33;;;4.63;;
83840;SDS011;73868;52.172;10.668;2024-01-15T09:40:06;6.87;;;4.33;;
83840;SDS011;73868;52.172;10.668;2024-01-15T09:42:37;6.53;;;4.00;;
83840;SDS011;73868;52.172;10.668;2024-01-15T09:45:02;8.33;;;4.30;;
83840;SDS011;73868;52.172;10.668;2024-01-15T09:47:28;8.60;;;3.67;;
83840;SDS011;73868;52.172;10.668;2024-01-15T09:49:54;6.37;;;3.03;;
83840;SDS011;73868;52.172;10.668;2024-01-15T09:52:23;4.60;;;2.17;;
83840;SDS011;73868;52.172;10.668;2024-01-15T09:54:49;3.20;;;2.37;;
83840;SDS011;73868;52.172;10.668;2024-01-15T09:57:15;3.73;;;1.87;;
83840;SDS011;73868;52.172;10.668;2024-01-15T09:59:42;7.53;;;2.30;;
83840;SDS011;73868;52.172;10.668;2024-01-15T10:02:11;5.47;;;2.40;;
83840;SDS011;73868;52.172;10.668;2024-01-15T10:04:39;5.43;;;2.77;;
83840;SDS011;73868;52.172;10.668;2024-01-15T10:07:05;8.00;;;2.70;;
83840;SDS011;73868;52.172;10.668;2024-01-15T10:09:33;5.10;;;2.50;;
83840;SDS011;73868;52.172;10.668;2024-01-15T10:11:58;4.70;;;2.50;;
83840;SDS011;73868;52.172;10.668;2024-01-15T10:14:24;6.53;;;3.30;;
83840;SDS011;73868;52.172;10.668;2024-01-15T10:16:50;6.00;;;2.83;;
83840;SDS011;73868;52.172;10.668;2024-01-15T10:19:15;4.37;;;2.77;;
83840;SDS011;73868;52.172;10.668;2024-01-15T10:21:41;6.73;;;3.20;;
83840;SDS011;73868;52.172;10.668;2024-01-15T10:24:06;5.97;;;2.90;;
83840;SDS011;73868;52.172;10.668;2024-01-15T10:26:32;5.67;;;2.53;;
83840;SDS011;73868;52.172;10.668;2024-01-15T10:28:58;9.30;;;2.70;;
83840;SDS011;73868;52.172;10.668;2024-01-15T10:31:25;6.10;;;2.40;;
83840;SDS011;73868;52.172;10.668;2024-01-15T10:33:52;3.77;;;2.33;;
83840;SDS011;73868;52.172;10.668;2024-01-15T10:36:17;7.10;;;2.90;;
83840;SDS011;73868;52.172;10.668;2024-01-15T10:38:43;5.20;;;2.13;;
83840;SDS011;73868;52.172;10.668;2024-01-15T10:41:09;7.57;;;3.33;;
83840;SDS011;73868;52.172;10.668;2024-01-15T10:43:35;7.43;;;2.50;;
83840;SDS011;73868;52.172;10.668;2024-01-15T10:46:01;5.60;;;2.20;;
83840;SDS011;73868;52.172;10.668;2024-01-15T10:48:27;6.37;;;2.73;;
83840;SDS011;73868;52.172;10.668;2024-01-15T10:50:56;7.73;;;2.93;;
83840;SDS011;73868;52.172;10.668;2024-01-15T10:53:22;6.63;;;2.80;;
83840;SDS011;73868;52.172;10.668;2024-01-15T10:55:50;5.67;;;3.00;;
83840;SDS011;73868;52.172;10.668;2024-01-15T10:58:16;11.20;;;4.03;;
83840;SDS011;73868;52.172;10.668;2024-01-15T11:00:43;8.47;;;2.67;;
83840;SDS011;73868;52.172;10.668;2024-01-15T11:03:09;6.23;;;2.70;;
83840;SDS011;73868;52.172;10.668;2024-01-15T11:05:42;5.07;;;2.23;;
83840;SDS011;73868;52.172;10.668;2024-01-15T11:08:08;5.20;;;2.50;;
83840;SDS011;73868;52.172;10.668;2024-01-15T11:10:38;5.43;;;2.00;;
83840;SDS011;73868;52.172;10.668;2024-01-15T11:13:08;5.00;;;1.90;;
83840;SDS011;73868;52.172;10.668;2024-01-15T11:15:59;3.73;;;1.57;;
83840;SDS011;73868;52.172;10.668;2024-01-15T11:18:30;5.77;;;1.67;;
83840;SDS011;73868;52.172;10.668;2024-01-15T11:23:44;5.53;;;2.30;;
83840;SDS011;73868;52.172;10.668;2024-01-15T11:29:02;7.93;;;2.37;;
83840;SDS011;73868;52.172;10.668;2024-01-15T11:34:03;5.17;;;2.43;;
83840;SDS011;73868;52.172;10.668;2024-01-15T11:37:16;4.03;;;2.70;;
83840;SDS011;73868;52.172;10.668;2024-01-15T11:42:00;4.83;;;2.40;;
83840;SDS011;73868;52.172;10.668;2024-01-15T11:44:27;4.67;;;2.00;;
83840;SDS011;73868;52.172;10.668;2024-01-15T11:52:12;6.10;;;2.07;;
83840;SDS011;73868;52.172;10.668;2024-01-15T11:54:42;4.53;;;1.87;;
83840;SDS011;73868;52.172;10.668;2024-01-15T11:57:16;6.60;;;1.87;;
83840;SDS011;73868;52.172;10.668;2024-01-15T11:59:47;3.27;;;1.80;;
83840;SDS011;73868;52.172;10.668;2024-01-15T12:02:13;3.03;;;1.63;;
83840;SDS011;73868;52.172;10.668;2024-01-15T12:04:39;4.70;;;1.80;;
83840;SDS011;73868;52.172;10.668;2024-01-15T12:07:05;2.40;;;1.40;;
83840;SDS011;73868;52.172;10.668;2024-01-15T12:09:30;3.37;;;1.80;;
83840;SDS011;73868;52.172;10.668;2024-01-15T12:11:59;2.63;;;1.60;;
83840;SDS011;73868;52.172;10.668;2024-01-15T12:14:36;3.73;;;1.23;;
83840;SDS011;73868;52.172;10.668;2024-01-15T12:17:03;7.63;;;2.00;;
83840;SDS011;73868;52.172;10.668;2024-01-15T12:19:29;3.90;;;1.70;;
83840;SDS011;73868;52.172;10.668;2024-01-15T12:21:54;6.30;;;2.03;;
83840;SDS011;73868;52.172;10.668;2024-01-15T12:24:20;6.33;;;2.37;;
83840;SDS011;73868;52.172;10.668;2024-01-15T12:26:46;5.03;;;2.10;;
83840;SDS011;73868;52.172;10.668;2024-01-15T12:29:11;5.23;;;1.97;;
83840;SDS011;73868;52.172;10.668;2024-01-15T12:31:37;3.77;;;2.00;;
83840;SDS011;73868;52.172;10.668;2024-01-15T12:34:02;3.33;;;1.87;;
83840;SDS011;73868;52.172;10.668;2024-01-15T12:36:31;3.73;;;1.83;;
83840;SDS011;73868;52.172;10.668;2024-01-15T12:39:00;2.90;;;1.97;;
83840;SDS011;73868;52.172;10.668;2024-01-15T12:41:25;3.33;;;1.90;;
83840;SDS011;73868;52.172;10.668;2024-01-15T12:43:51;3.70;;;1.87;;
83840;SDS011;73868;52.172;10.668;2024-01-15T12:46:17;4.67;;;1.60;;
83840;SDS011;73868;52.172;10.668;2024-01-15T12:48:44;3.20;;;1.67;;
83840;SDS011;73868;52.172;10.668;2024-01-15T12:51:09;4.23;;;1.90;;
83840;SDS011;73868;52.172;10.668;2024-01-15T12:53:35;4.93;;;1.80;;
83840;SDS011;73868;52.172;10.668;2024-01-15T12:56:01;5.67;;;1.90;;
83840;SDS011;73868;52.172;10.668;2024-01-15T12:58:26;5.50;;;1.83;;
83840;SDS011;73868;52.172;10.668;2024-01-15T13:00:52;6.23;;;1.47;;
83840;SDS011;73868;52.172;10.668;2024-01-15T13:03:17;5.03;;;2.00;;
83840;SDS011;73868;52.172;10.668;2024-01-15T13:05:43;4.47;;;1.60;;
83840;SDS011;73868;52.172;10.668;2024-01-15T13:08:10;5.10;;;2.07;;
83840;SDS011;73868;52.172;10.668;2024-01-15T13:10:35;6.27;;;2.20;;
83840;SDS011;73868;52.172;10.668;2024-01-15T13:13:01;4.53;;;2.03;;
83840;SDS011;73868;52.172;10.668;2024-01-15T13:15:27;6.60;;;2.30;;
83840;SDS011;73868;52.172;10.668;2024-01-15T13:17:52;3.93;;;2.07;;
83840;SDS011;73868;52.172;10.668;2024-01-15T13:20:18;4.60;;;2.10;;
83840;SDS011;73868;52.172;10.668;2024-01-15T13:22:43;4.30;;;1.87;;
83840;SDS011;73868;52.172;10.668;2024-01-15T13:25:09;8.33;;;2.60;;
83840;SDS011;73868;52.172;10.668;2024-01-15T13:27:36;5.37;;;2.10;;
83840;SDS011;73868;52.172;10.668;2024-01-15T13:30:02;3.50;;;1.67;;
83840;SDS011;73868;52.172;10.668;2024-01-15T13:32:29;6.43;;;1.93;;
83840;SDS011;73868;52.172;10.668;2024-01-15T13:34:55;7.07;;;2.40;;
83840;SDS011;73868;52.172;10.668;2024-01-15T13:37:21;5.33;;;1.97;;
83840;SDS011;73868;52.172;10.668;2024-01-15T13:39:49;8.00;;;1.90;;
83840;SDS011;73868;52.172;10.668;2024-01-15T13:42:16;4.90;;;1.67;;
83840;SDS011;73868;52.172;10.668;2024-01-15T13:44:42;3.97;;;1.67;;
83840;SDS011;73868;52.172;10.668;2024-01-15T13:47:08;8.60;;;2.30;;
83840;SDS011;73868;52.172;10.668;2024-01-15T13:49:34;4.80;;;1.90;;
83840;SDS011;73868;52.172;10.668;2024-01-15T13:52:00;7.07;;;1.73;;
83840;SDS011;73868;52.172;10.668;2024-01-15T13:54:28;7.50;;;1.90;;
83840;SDS011;73868;52.172;10.668;2024-01-15T13:56:54;12.00;;;2.77;;
83840;SDS011;73868;52.172;10.668;2024-01-15T13:59:20;7.00;;;2.17;;
83840;SDS011;73868;52.172;10.668;2024-01-15T14:01:46;4.00;;;2.03;;
83840;SDS011;73868;52.172;10.668;2024-01-15T14:04:12;5.60;;;1.70;;
83840;SDS011;73868;52.172;10.668;2024-01-15T14:06:37;4.77;;;1.77;;
83840;SDS011;73868;52.172;10.668;2024-01-15T14:09:04;6.80;;;2.13;;
83840;SDS011;73868;52.172;10.668;2024-01-15T14:11:29;8.07;;;2.50;;
83840;SDS011;73868;52.172;10.668;2024-01-15T14:13:55;6.10;;;1.87;;
83840;SDS011;73868;52.172;10.668;2024-01-15T14:16:21;5.13;;;1.97;;
83840;SDS011;73868;52.172;10.668;2024-01-15T14:18:46;8.30;;;2.30;;
83840;SDS011;73868;52.172;10.668;2024-01-15T14:21:12;7.43;;;2.13;;
83840;SDS011;73868;52.172;10.668;2024-01-15T14:23:38;4.13;;;2.00;;
83840;SDS011;73868;52.172;10.668;2024-01-15T14:26:03;6.37;;;2.10;;
83840;SDS011;73868;52.172;10.668;2024-01-15T14:28:29;9.13;;;2.30;;
83840;SDS011;73868;52.172;10.668;2024-01-15T14:30:55;7.87;;;2.43;;
83840;SDS011;73868;52.172;10.668;2024-01-15T14:33:23;5.87;;;1.93;;
83840;SDS011;73868;52.172;10.668;2024-01-15T14:35:48;7.27;;;2.30;;
83840;SDS011;73868;52.172;10.668;2024-01-15T14:38:14;5.47;;;1.77;;
83840;SDS011;73868;52.172;10.668;2024-01-15T14:40:40;6.70;;;2.90;;
83840;SDS011;73868;52.172;10.668;2024-01-15T14:43:05;7.40;;;2.83;;